Nebo, North Carolina
Current Conditions -  °F | °C
As of 12:15 PM on Thursday 30 Oct 2014 (Local Time) from KFQD Reporting Station
Clear Clear  
Wind Chill: 62°   Ceiling: Unl
Heat Index: 62°   Visibility: 10mi
Dew Point: 38°   Wind: 0mph
Humidity: 41%   Direction: NA
Pressure: 30.08"   Gusts: NA
Location:  35.67°N, 81.9°W
Report Text: KFQD 301615Z AUTO 00000KT 10SM CLR 16/03 A3008 RMK AO2 T01640032
Loading
Personal Weather Stations






























Interactive Weather Map
Tropical Storm Tracking
New forecast layout! Learn more

10-Day Weather Forecast

Advertisements
Track Severe Weather on mobile